createdAt,value
2023-01-30T00:00:08.120Z,0.18
2023-01-30T00:01:07.869Z,0.18
2023-01-30T00:02:08.242Z,0.15
2023-01-30T00:03:07.865Z,0.15
2023-01-30T00:04:07.861Z,0.15
2023-01-30T00:05:07.867Z,0.12
2023-01-30T00:06:07.805Z,0.12
2023-01-30T00:07:08.020Z,0.13
2023-01-30T00:08:07.784Z,0.15
2023-01-30T00:09:07.899Z,0.15
2023-01-30T00:10:07.770Z,0.13
2023-01-30T00:11:07.784Z,0.12
2023-01-30T00:12:07.784Z,0.12
2023-01-30T00:13:07.936Z,0.13
2023-01-30T00:14:07.781Z,0.13
2023-01-30T00:15:07.696Z,0.12
2023-01-30T00:16:07.775Z,0.13
2023-01-30T00:17:07.706Z,0.12
2023-01-30T00:18:07.787Z,0.11
2023-01-30T00:19:07.728Z,0.12
2023-01-30T00:20:07.676Z,0.09
2023-01-30T00:21:07.630Z,0.09
2023-01-30T00:22:07.783Z,0.08
2023-01-30T00:23:07.619Z,0.09
2023-01-30T00:24:08.115Z,0.06
2023-01-30T00:25:07.753Z,0.02
2023-01-30T00:26:07.580Z,0.02
2023-01-30T00:27:07.601Z,0.05
2023-01-30T00:28:07.771Z,0.05
2023-01-30T00:29:07.672Z,0.05
2023-01-30T00:30:07.547Z,0.05
2023-01-30T00:31:07.505Z,0.00
2023-01-30T00:32:07.516Z,0.02
2023-01-30T00:33:07.472Z,-0.02
2023-01-30T00:34:07.469Z,0.02
2023-01-30T00:35:07.653Z,0.01
2023-01-30T00:36:07.439Z,0.01
2023-01-30T00:37:08.683Z,0.00
2023-01-30T00:38:07.437Z,-0.02
2023-01-30T00:39:07.416Z,-0.02
2023-01-30T00:40:07.440Z,0.01
2023-01-30T00:41:07.470Z,0.00
2023-01-30T00:42:07.384Z,0.00
2023-01-30T00:43:07.651Z,0.02
2023-01-30T00:44:07.473Z,0.01
2023-01-30T00:45:07.320Z,0.00
2023-01-30T00:46:07.507Z,0.01
2023-01-30T00:47:07.311Z,0.01
2023-01-30T00:48:07.457Z,0.02
2023-01-30T00:49:07.301Z,0.02
2023-01-30T00:50:07.304Z,0.05
2023-01-30T00:51:07.296Z,0.08
2023-01-30T00:52:07.265Z,0.06
2023-01-30T00:53:07.295Z,0.08
2023-01-30T00:54:07.214Z,0.08
2023-01-30T00:55:07.328Z,0.08
2023-01-30T00:56:07.438Z,0.02
2023-01-30T00:57:07.217Z,0.08
2023-01-30T00:58:07.439Z,0.09
2023-01-30T00:59:07.286Z,0.08
2023-01-30T01:00:07.105Z,0.09
2023-01-30T01:01:07.143Z,0.09
2023-01-30T01:02:07.198Z,0.09
2023-01-30T01:03:07.211Z,0.11
2023-01-30T01:04:07.121Z,0.11
2023-01-30T01:05:07.111Z,0.09
2023-01-30T01:06:07.059Z,0.09
2023-01-30T01:07:07.010Z,0.09
2023-01-30T01:08:07.160Z,0.12
2023-01-30T01:09:07.077Z,0.12
2023-01-30T01:10:07.002Z,0.11
2023-01-30T01:11:06.986Z,0.09
2023-01-30T01:12:07.111Z,0.11
2023-01-30T01:13:07.038Z,0.12
2023-01-30T01:14:07.247Z,0.09
2023-01-30T01:15:06.958Z,0.11
2023-01-30T01:16:07.208Z,0.09
2023-01-30T01:17:06.915Z,0.09
2023-01-30T01:18:07.142Z,0.09
2023-01-30T01:19:06.888Z,0.08
2023-01-30T01:20:06.836Z,0.09
2023-01-30T01:21:06.857Z,0.11
2023-01-30T01:22:06.871Z,0.08
2023-01-30T01:23:06.816Z,0.05
2023-01-30T01:24:06.882Z,0.08
2023-01-30T01:25:07.002Z,0.08
2023-01-30T01:26:06.791Z,0.08
2023-01-30T01:27:06.781Z,0.06
2023-01-30T01:28:06.809Z,0.06
2023-01-30T01:29:06.761Z,0.05
2023-01-30T01:30:06.925Z,0.05
2023-01-30T01:31:06.784Z,0.02
2023-01-30T01:32:06.863Z,0.05
2023-01-30T01:33:06.759Z,0.05
2023-01-30T01:34:06.801Z,0.00
2023-01-30T01:35:06.717Z,0.02
2023-01-30T01:36:06.716Z,0.00
2023-01-30T01:37:06.685Z,0.02
2023-01-30T01:38:06.847Z,0.01
2023-01-30T01:39:06.598Z,0.05
2023-01-30T01:40:06.804Z,0.02
2023-01-30T01:41:06.686Z,0.01
2023-01-30T01:42:06.584Z,0.01
2023-01-30T01:43:06.663Z,0.01
2023-01-30T01:44:06.584Z,0.00
2023-01-30T01:45:06.641Z,0.00
2023-01-30T01:46:06.897Z,-0.02
2023-01-30T01:47:06.544Z,-0.03
2023-01-30T01:48:06.537Z,-0.03
2023-01-30T01:49:06.500Z,-0.03
2023-01-30T01:50:06.454Z,-0.03
2023-01-30T01:51:06.471Z,-0.03
2023-01-30T01:52:06.557Z,-0.03
2023-01-30T01:53:06.482Z,-0.02
2023-01-30T01:54:06.466Z,0.01
2023-01-30T01:55:06.437Z,0.05
2023-01-30T01:56:06.518Z,0.05
2023-01-30T01:57:06.641Z,0.02
2023-01-30T01:58:06.440Z,0.06
2023-01-30T01:59:06.360Z,0.06
2023-01-30T02:00:06.338Z,0.09
2023-01-30T02:01:06.433Z,0.06
2023-01-30T02:02:06.392Z,0.06
2023-01-30T02:03:06.362Z,0.08
2023-01-30T02:04:06.369Z,0.08
2023-01-30T02:05:06.393Z,0.11
2023-01-30T02:06:06.293Z,0.12
2023-01-30T02:07:06.250Z,0.09
2023-01-30T02:08:06.482Z,0.08
2023-01-30T02:09:06.434Z,0.06
2023-01-30T02:10:06.225Z,0.06
2023-01-30T02:11:06.314Z,0.02
2023-01-30T02:12:06.225Z,0.00
2023-01-30T02:13:06.207Z,-0.03
2023-01-30T02:14:06.248Z,-0.06
2023-01-30T02:15:06.346Z,-0.07
2023-01-30T02:16:06.212Z,-0.13
2023-01-30T02:17:06.345Z,-0.17
2023-01-30T02:18:06.187Z,-0.21
2023-01-30T02:19:06.171Z,-0.24
2023-01-30T02:20:06.108Z,-0.28
2023-01-30T02:21:06.086Z,-0.33
2023-01-30T02:22:06.086Z,-0.36
2023-01-30T02:23:06.092Z,-0.41
2023-01-30T02:24:06.021Z,-0.46
2023-01-30T02:25:06.113Z,-0.51
2023-01-30T02:26:06.071Z,-0.56
2023-01-30T02:27:06.004Z,-0.54
2023-01-30T02:28:05.971Z,-0.57
2023-01-30T02:29:05.961Z,-0.60
2023-01-30T02:30:06.182Z,-0.60
2023-01-30T02:31:06.171Z,-0.63
2023-01-30T02:32:06.214Z,-0.67
2023-01-30T02:33:05.945Z,-0.72
2023-01-30T02:34:05.911Z,-0.74
2023-01-30T02:35:06.037Z,-0.72
2023-01-30T02:36:05.918Z,-0.78
2023-01-30T02:37:06.038Z,-0.82
2023-01-30T02:38:05.876Z,-0.84
2023-01-30T02:39:06.026Z,-0.84
2023-01-30T02:40:05.828Z,-0.85
2023-01-30T02:41:05.846Z,-0.85
2023-01-30T02:42:05.838Z,-0.84
2023-01-30T02:43:05.848Z,-0.84
2023-01-30T02:44:05.778Z,-0.82
2023-01-30T02:45:05.841Z,-0.82
2023-01-30T02:46:05.906Z,-0.85
2023-01-30T02:47:05.748Z,-0.85
2023-01-30T02:48:05.866Z,-0.87
2023-01-30T02:49:05.782Z,-0.89
2023-01-30T02:50:05.733Z,-0.91
2023-01-30T02:51:05.672Z,-0.94
2023-01-30T02:52:05.651Z,-0.96
2023-01-30T02:53:05.675Z,-0.97
2023-01-30T02:54:05.914Z,-1.03
2023-01-30T02:55:05.827Z,-1.03
2023-01-30T02:56:05.617Z,-1.07
2023-01-30T02:57:05.707Z,-1.11
2023-01-30T02:58:05.577Z,-1.12
2023-01-30T02:59:05.566Z,-1.12
2023-01-30T03:00:05.552Z,-1.12
2023-01-30T03:01:05.696Z,-1.09
2023-01-30T03:02:05.624Z,-1.11
2023-01-30T03:03:05.515Z,-1.12
2023-01-30T03:04:05.517Z,-1.09
2023-01-30T03:05:05.521Z,-1.09
2023-01-30T03:06:05.511Z,-1.09
2023-01-30T03:07:05.573Z,-1.07
2023-01-30T03:08:05.535Z,-1.04
2023-01-30T03:09:05.468Z,-1.03
2023-01-30T03:10:05.554Z,-1.00
2023-01-30T03:11:05.752Z,-1.03
2023-01-30T03:12:05.546Z,-1.03
2023-01-30T03:13:05.441Z,-1.07
2023-01-30T03:14:05.530Z,-1.11
2023-01-30T03:15:05.361Z,-1.15
2023-01-30T03:16:05.423Z,-1.15
2023-01-30T03:17:05.415Z,-1.19
2023-01-30T03:18:05.427Z,-1.19
2023-01-30T03:19:05.392Z,-1.24
2023-01-30T03:20:05.557Z,-1.27
2023-01-30T03:21:05.294Z,-1.25
2023-01-30T03:22:05.325Z,-1.24
2023-01-30T03:23:05.306Z,-1.22
2023-01-30T03:24:05.288Z,-1.22
2023-01-30T03:25:05.266Z,-1.29
2023-01-30T03:26:05.210Z,-1.30
2023-01-30T03:27:05.403Z,-1.32
2023-01-30T03:28:05.252Z,-1.33
2023-01-30T03:29:05.202Z,-1.33
2023-01-30T03:30:05.192Z,-1.35
2023-01-30T03:31:05.497Z,-1.33
2023-01-30T03:32:05.230Z,-1.32
2023-01-30T03:33:05.170Z,-1.29
2023-01-30T03:34:05.202Z,-1.24
2023-01-30T03:35:05.453Z,-1.22
2023-01-30T03:36:05.202Z,-1.18
2023-01-30T03:37:05.386Z,-1.15
2023-01-30T03:38:05.127Z,-1.14
2023-01-30T03:39:05.086Z,-1.09
2023-01-30T03:40:05.130Z,-1.04
2023-01-30T03:41:05.068Z,-1.01
2023-01-30T03:42:05.218Z,-0.97
2023-01-30T03:43:05.028Z,-0.94
2023-01-30T03:44:05.026Z,-0.87
2023-01-30T03:45:05.066Z,-0.84
2023-01-30T03:46:05.109Z,-0.82
2023-01-30T03:47:04.993Z,-0.81
2023-01-30T03:48:05.296Z,-0.82
2023-01-30T03:49:05.082Z,-0.85
2023-01-30T03:50:04.920Z,-0.85
2023-01-30T03:51:05.069Z,-0.93
2023-01-30T03:52:05.225Z,-0.96
2023-01-30T03:53:04.900Z,-0.99
2023-01-30T03:54:04.889Z,-1.03
2023-01-30T03:55:04.851Z,-1.03
2023-01-30T03:56:04.957Z,-1.04
2023-01-30T03:57:05.105Z,-1.07
2023-01-30T03:58:04.851Z,-1.09
2023-01-30T03:59:05.108Z,-1.12
2023-01-30T04:00:04.895Z,-1.14
2023-01-30T04:01:05.100Z,-1.15
2023-01-30T04:02:04.994Z,-1.18
2023-01-30T04:03:05.121Z,-1.19
2023-01-30T04:04:04.767Z,-1.25
2023-01-30T04:05:04.766Z,-1.27
2023-01-30T04:06:04.884Z,-1.30
2023-01-30T04:07:04.737Z,-1.33
2023-01-30T04:08:04.721Z,-1.35
2023-01-30T04:09:04.840Z,-1.38
2023-01-30T04:10:04.708Z,-1.36
2023-01-30T04:11:04.741Z,-1.33
2023-01-30T04:12:04.897Z,-1.38
2023-01-30T04:13:04.630Z,-1.39
2023-01-30T04:14:04.899Z,-1.40
2023-01-30T04:15:04.854Z,-1.42
2023-01-30T04:16:04.578Z,-1.46
2023-01-30T04:17:04.570Z,-1.50
2023-01-30T04:18:04.578Z,-1.53
2023-01-30T04:19:04.614Z,-1.56
2023-01-30T04:20:04.591Z,-1.54
2023-01-30T04:21:04.756Z,-1.54
2023-01-30T04:22:04.578Z,-1.57
2023-01-30T04:23:04.768Z,-1.56
2023-01-30T04:24:04.578Z,-1.56
2023-01-30T04:25:04.496Z,-1.57
2023-01-30T04:26:04.510Z,-1.58
2023-01-30T04:27:04.726Z,-1.58
2023-01-30T04:28:04.576Z,-1.56
2023-01-30T04:29:04.455Z,-1.56
2023-01-30T04:30:04.502Z,-1.56
2023-01-30T04:31:04.457Z,-1.57
2023-01-30T04:32:04.581Z,-1.58
2023-01-30T04:33:04.381Z,-1.56
2023-01-30T04:34:04.448Z,-1.53
2023-01-30T04:35:04.439Z,-1.53
2023-01-30T04:36:04.640Z,-1.50
2023-01-30T04:37:04.422Z,-1.48
2023-01-30T04:38:04.593Z,-1.42
2023-01-30T04:39:04.304Z,-1.35
2023-01-30T04:40:04.592Z,-1.32
2023-01-30T04:41:04.462Z,-1.30
2023-01-30T04:42:04.333Z,-1.27
2023-01-30T04:43:04.266Z,-1.24
2023-01-30T04:44:04.256Z,-1.24
2023-01-30T04:45:04.488Z,-1.21
2023-01-30T04:46:04.269Z,-1.19
2023-01-30T04:47:04.225Z,-1.22
2023-01-30T04:48:04.330Z,-1.27
2023-01-30T04:49:04.197Z,-1.27
2023-01-30T04:50:04.269Z,-1.29
2023-01-30T04:51:04.417Z,-1.25
2023-01-30T04:52:04.247Z,-1.24
2023-01-30T04:53:04.402Z,-1.22
2023-01-30T04:54:04.181Z,-1.21
2023-01-30T04:55:04.116Z,-1.22
2023-01-30T04:56:04.134Z,-1.18
2023-01-30T04:57:04.089Z,-1.15
2023-01-30T04:58:04.073Z,-1.14
2023-01-30T04:59:04.175Z,-1.07
2023-01-30T05:00:04.042Z,-1.03
2023-01-30T05:01:04.091Z,-1.04
2023-01-30T05:02:04.095Z,-1.00
2023-01-30T05:03:04.086Z,-0.97
2023-01-30T05:04:04.007Z,-0.93
2023-01-30T05:05:04.227Z,-0.87
2023-01-30T05:06:03.976Z,-0.85
2023-01-30T05:07:04.117Z,-0.85
2023-01-30T05:08:04.007Z,-0.85
2023-01-30T05:09:04.105Z,-0.81
2023-01-30T05:10:03.950Z,-0.80
2023-01-30T05:11:03.977Z,-0.77
2023-01-30T05:12:03.906Z,-0.72
2023-01-30T05:13:03.903Z,-0.74
2023-01-30T05:14:03.946Z,-0.75
2023-01-30T05:15:03.843Z,-0.74
2023-01-30T05:16:04.029Z,-0.74
2023-01-30T05:17:03.853Z,-0.74
2023-01-30T05:18:03.864Z,-0.72
2023-01-30T05:19:03.831Z,-0.64
2023-01-30T05:20:03.901Z,-0.63
2023-01-30T05:21:03.832Z,-0.63
2023-01-30T05:22:03.959Z,-0.63
2023-01-30T05:23:03.770Z,-0.62
2023-01-30T05:24:03.940Z,-0.60
2023-01-30T05:25:03.779Z,-0.62
2023-01-30T05:26:03.813Z,-0.63
2023-01-30T05:27:03.786Z,-0.64
2023-01-30T05:28:03.742Z,-0.63
2023-01-30T05:29:03.720Z,-0.64
2023-01-30T05:30:03.653Z,-0.66
2023-01-30T05:31:03.930Z,-0.63
2023-01-30T05:32:03.721Z,-0.64
2023-01-30T05:33:03.777Z,-0.66
2023-01-30T05:34:03.645Z,-0.69
2023-01-30T05:35:03.810Z,-0.67
2023-01-30T05:36:03.608Z,-0.67
2023-01-30T05:37:03.689Z,-0.63
2023-01-30T05:38:03.544Z,-0.56
2023-01-30T05:39:03.792Z,-0.54
2023-01-30T05:40:03.532Z,-0.56
2023-01-30T05:41:03.570Z,-0.54
2023-01-30T05:42:03.500Z,-0.54
2023-01-30T05:43:03.570Z,-0.49
2023-01-30T05:44:03.513Z,-0.48
2023-01-30T05:45:03.533Z,-0.49
2023-01-30T05:46:03.469Z,-0.51
2023-01-30T05:47:03.474Z,-0.51
2023-01-30T05:48:03.510Z,-0.51
2023-01-30T05:49:03.441Z,-0.54
2023-01-30T05:50:03.428Z,-0.53
2023-01-30T05:51:03.457Z,-0.51
2023-01-30T05:52:03.391Z,-0.48
2023-01-30T05:53:03.445Z,-0.46
2023-01-30T05:54:03.368Z,-0.45
2023-01-30T05:55:03.325Z,-0.45
2023-01-30T05:56:03.396Z,-0.46
2023-01-30T05:57:03.449Z,-0.45
2023-01-30T05:58:03.357Z,-0.46
2023-01-30T05:59:03.337Z,-0.44
2023-01-30T06:00:03.310Z,-0.44
2023-01-30T06:01:03.323Z,-0.39
2023-01-30T06:02:03.359Z,-0.35
2023-01-30T06:03:03.341Z,-0.31
2023-01-30T06:04:03.485Z,-0.28
2023-01-30T06:05:03.212Z,-0.24
2023-01-30T06:06:03.231Z,-0.23
2023-01-30T06:07:03.171Z,-0.27
2023-01-30T06:08:03.402Z,-0.28
2023-01-30T06:09:03.132Z,-0.33
2023-01-30T06:10:03.176Z,-0.33
2023-01-30T06:11:03.137Z,-0.33
2023-01-30T06:12:03.126Z,-0.36
2023-01-30T06:13:03.157Z,-0.35
2023-01-30T06:14:03.328Z,-0.35
2023-01-30T06:15:03.115Z,-0.38
2023-01-30T06:16:03.129Z,-0.41
2023-01-30T06:17:03.170Z,-0.41
2023-01-30T06:18:03.065Z,-0.42
2023-01-30T06:19:03.052Z,-0.42
2023-01-30T06:20:03.371Z,-0.44
2023-01-30T06:21:03.051Z,-0.44
2023-01-30T06:22:03.302Z,-0.46
2023-01-30T06:23:03.136Z,-0.49
2023-01-30T06:24:02.950Z,-0.53
2023-01-30T06:25:03.152Z,-0.51
2023-01-30T06:26:04.942Z,-0.49
2023-01-30T06:27:03.141Z,-0.49
2023-01-30T06:28:02.894Z,-0.49
2023-01-30T06:29:03.010Z,-0.51
2023-01-30T06:30:02.962Z,-0.54
2023-01-30T06:31:03.170Z,-0.56
2023-01-30T06:32:03.052Z,-0.60
2023-01-30T06:33:03.166Z,-0.63
2023-01-30T06:34:02.853Z,-0.67
2023-01-30T06:35:02.873Z,-0.70
2023-01-30T06:36:02.878Z,-0.74
2023-01-30T06:37:02.907Z,-0.78
2023-01-30T06:38:02.789Z,-0.82
2023-01-30T06:39:02.797Z,-0.87
2023-01-30T06:40:02.809Z,-0.87
2023-01-30T06:41:02.741Z,-0.89
2023-01-30T06:42:02.818Z,-0.94
2023-01-30T06:43:02.901Z,-0.97
2023-01-30T06:44:02.710Z,-1.01
2023-01-30T06:45:02.835Z,-1.07
2023-01-30T06:46:02.685Z,-1.09
2023-01-30T06:47:02.845Z,-1.12
2023-01-30T06:48:02.700Z,-1.18
2023-01-30T06:49:02.863Z,-1.18
2023-01-30T06:50:02.663Z,-1.22
2023-01-30T06:51:02.881Z,-1.25
2023-01-30T06:52:02.664Z,-1.27
2023-01-30T06:53:02.601Z,-1.29
2023-01-30T06:54:02.717Z,-1.32
2023-01-30T06:55:03.164Z,-1.36
2023-01-30T06:56:02.678Z,-1.36
2023-01-30T06:57:02.576Z,-1.36
2023-01-30T06:58:02.708Z,-1.38
2023-01-30T06:59:02.588Z,-1.36
2023-01-30T07:00:02.490Z,-1.33
2023-01-30T07:01:02.553Z,-1.35
2023-01-30T07:02:02.475Z,-1.33
2023-01-30T07:03:02.438Z,-1.32
2023-01-30T07:04:02.481Z,-1.30
2023-01-30T07:05:02.551Z,-1.29
2023-01-30T07:06:02.651Z,-1.27
2023-01-30T07:07:02.511Z,-1.29
2023-01-30T07:08:02.412Z,-1.27
2023-01-30T07:09:02.512Z,-1.24
2023-01-30T07:10:08.249Z,-1.22
2023-01-30T07:11:02.489Z,-1.19
2023-01-30T07:12:02.327Z,-1.17
2023-01-30T07:13:02.496Z,-1.11
2023-01-30T07:14:02.350Z,-1.07
2023-01-30T07:15:02.497Z,-1.01
2023-01-30T07:16:02.364Z,-0.93
2023-01-30T07:17:02.363Z,-0.85
2023-01-30T07:18:02.258Z,-0.77
2023-01-30T07:19:02.526Z,-0.74
2023-01-30T07:20:02.220Z,-0.63
2023-01-30T07:21:02.263Z,-0.54
2023-01-30T07:22:03.356Z,-0.46
2023-01-30T07:23:02.258Z,-0.44
2023-01-30T07:24:02.211Z,-0.44
2023-01-30T07:25:02.184Z,-0.41
2023-01-30T07:26:02.192Z,-0.42
2023-01-30T07:27:02.188Z,-0.42
2023-01-30T07:28:02.325Z,-0.44
2023-01-30T07:29:02.165Z,-0.44
2023-01-30T07:30:02.341Z,-0.42
2023-01-30T07:31:02.315Z,-0.42
2023-01-30T07:32:02.100Z,-0.41
2023-01-30T07:33:02.101Z,-0.36
2023-01-30T07:34:02.090Z,-0.36
2023-01-30T07:35:04.240Z,-0.38
2023-01-30T07:36:02.031Z,-0.39
2023-01-30T07:37:02.020Z,-0.39
2023-01-30T07:38:02.090Z,-0.38
2023-01-30T07:39:01.980Z,-0.38
2023-01-30T07:40:02.066Z,-0.35
2023-01-30T07:41:02.180Z,-0.27
2023-01-30T07:42:02.009Z,-0.21
2023-01-30T07:43:02.198Z,-0.15
2023-01-30T07:44:02.044Z,-0.12
2023-01-30T07:45:02.189Z,-0.10
2023-01-30T07:46:02.063Z,-0.06
2023-01-30T07:47:02.016Z,-0.02
2023-01-30T07:48:02.018Z,0.06
2023-01-30T07:49:01.923Z,0.18
2023-01-30T07:50:01.869Z,0.30
2023-01-30T07:51:01.871Z,0.48
2023-01-30T07:52:02.013Z,0.58
2023-01-30T07:53:01.801Z,0.66
2023-01-30T07:54:01.849Z,0.67
2023-01-30T07:55:01.941Z,0.71
2023-01-30T07:56:01.755Z,0.71
2023-01-30T07:57:01.862Z,0.70
2023-01-30T07:58:01.757Z,0.76
2023-01-30T07:59:01.900Z,0.88
2023-01-30T08:00:01.719Z,0.96
2023-01-30T08:01:01.723Z,1.02
2023-01-30T08:02:01.698Z,0.96
2023-01-30T08:03:01.679Z,0.89
2023-01-30T08:04:01.664Z,0.82
2023-01-30T08:05:01.702Z,0.70
2023-01-30T08:06:02.141Z,0.58
2023-01-30T08:07:01.596Z,0.55
2023-01-30T08:08:01.614Z,0.48
2023-01-30T08:09:01.622Z,0.45
2023-01-30T08:10:01.584Z,0.45
2023-01-30T08:11:01.643Z,0.48
2023-01-30T08:12:01.596Z,0.51
2023-01-30T08:13:01.582Z,0.55
2023-01-30T08:14:01.564Z,0.59
2023-01-30T08:15:01.491Z,0.52
2023-01-30T08:16:01.579Z,0.48
2023-01-30T08:17:01.510Z,0.45
2023-01-30T08:18:01.448Z,0.44
2023-01-30T08:19:01.477Z,0.44
2023-01-30T08:20:01.463Z,0.44
2023-01-30T08:21:01.418Z,0.45
2023-01-30T08:22:01.502Z,0.45
2023-01-30T08:23:01.403Z,0.48
2023-01-30T08:24:01.609Z,0.47
2023-01-30T08:25:01.410Z,0.48
2023-01-30T08:26:01.375Z,0.49
2023-01-30T08:27:01.383Z,0.51
2023-01-30T08:28:01.390Z,0.61
2023-01-30T08:29:01.329Z,0.66
2023-01-30T08:30:01.356Z,0.70
2023-01-30T08:31:01.369Z,0.73
2023-01-30T08:32:01.305Z,0.82
2023-01-30T08:33:01.407Z,0.88
2023-01-30T08:34:01.376Z,0.94
2023-01-30T08:35:01.283Z,0.95
2023-01-30T08:36:01.273Z,1.03
2023-01-30T08:37:01.297Z,1.06
2023-01-30T08:38:01.233Z,1.09
2023-01-30T08:39:01.267Z,1.13
2023-01-30T08:40:01.174Z,1.20
2023-01-30T08:41:01.228Z,1.22
2023-01-30T08:42:01.142Z,1.30
2023-01-30T08:43:01.166Z,1.34
2023-01-30T08:44:01.148Z,1.39
2023-01-30T08:45:01.223Z,1.46
2023-01-30T08:46:01.124Z,1.52
2023-01-30T08:47:01.082Z,1.56
2023-01-30T08:48:01.026Z,1.60
2023-01-30T08:49:01.069Z,1.61
2023-01-30T08:50:01.070Z,1.74
2023-01-30T08:51:01.159Z,1.79
2023-01-30T08:52:01.012Z,1.86
2023-01-30T08:53:01.023Z,1.88
2023-01-30T08:54:01.053Z,1.88
2023-01-30T08:55:01.007Z,1.86
2023-01-30T08:56:00.987Z,1.86
2023-01-30T08:57:01.022Z,1.89
2023-01-30T08:58:00.977Z,1.98
2023-01-30T08:59:00.904Z,2.08
2023-01-30T09:00:00.931Z,2.18
2023-01-30T09:01:00.966Z,2.23
2023-01-30T09:02:00.916Z,2.32
2023-01-30T09:03:00.928Z,2.43
2023-01-30T09:04:00.874Z,2.50
2023-01-30T09:05:00.877Z,2.57
2023-01-30T09:06:00.874Z,2.61
2023-01-30T09:07:00.821Z,2.62
2023-01-30T09:08:00.882Z,2.65
2023-01-30T09:09:00.766Z,2.77
2023-01-30T09:10:00.836Z,2.94
2023-01-30T09:11:00.840Z,3.08
2023-01-30T09:12:00.777Z,3.19
2023-01-30T09:13:00.815Z,3.26
2023-01-30T09:14:00.802Z,3.26
2023-01-30T09:15:00.768Z,3.22
2023-01-30T09:16:00.726Z,3.21
2023-01-30T09:17:00.837Z,3.29
2023-01-30T09:18:00.835Z,3.52
2023-01-30T09:19:00.672Z,3.70
2023-01-30T09:20:00.817Z,3.68
2023-01-30T09:21:00.632Z,3.67
2023-01-30T09:22:00.635Z,3.70
2023-01-30T09:23:00.622Z,3.81
2023-01-30T09:24:00.683Z,3.77
2023-01-30T09:25:00.691Z,3.81
2023-01-30T09:26:00.595Z,3.77
2023-01-30T09:27:00.591Z,3.73
2023-01-30T09:28:00.614Z,3.76
2023-01-30T09:29:00.607Z,3.76
2023-01-30T09:30:00.607Z,3.76
2023-01-30T09:31:00.728Z,3.88
2023-01-30T09:32:00.548Z,4.00
2023-01-30T09:33:00.518Z,4.04
2023-01-30T09:34:00.474Z,4.13
2023-01-30T09:35:00.561Z,4.28
2023-01-30T09:36:00.488Z,4.45
2023-01-30T09:37:00.515Z,4.49
2023-01-30T09:38:00.464Z,4.61
2023-01-30T09:39:00.420Z,4.68
2023-01-30T09:40:00.615Z,4.71
2023-01-30T09:41:00.379Z,4.70
2023-01-30T09:42:00.384Z,4.75
2023-01-30T09:43:00.365Z,4.78
2023-01-30T09:44:00.335Z,4.75
2023-01-30T09:45:00.319Z,4.76
2023-01-30T09:46:00.525Z,4.76
2023-01-30T09:47:00.360Z,4.78
2023-01-30T09:48:01.693Z,4.71
2023-01-30T09:49:00.298Z,4.70
2023-01-30T09:50:00.346Z,4.76
2023-01-30T09:51:00.415Z,4.76
2023-01-30T09:52:00.339Z,4.78
2023-01-30T09:53:00.246Z,4.79
2023-01-30T09:54:01.224Z,4.78
2023-01-30T09:55:00.292Z,4.75
2023-01-30T09:56:00.224Z,4.76
2023-01-30T09:57:00.274Z,4.67
2023-01-30T09:58:00.141Z,4.60
2023-01-30T09:59:00.164Z,4.56
2023-01-30T10:00:00.161Z,4.56
2023-01-30T10:01:00.171Z,4.56
2023-01-30T10:02:00.191Z,4.52
2023-01-30T10:03:00.142Z,4.49
2023-01-30T10:04:00.129Z,4.53
2023-01-30T10:05:02.140Z,4.56
2023-01-30T10:06:00.130Z,4.56
2023-01-30T10:07:00.126Z,4.58
2023-01-30T10:08:00.330Z,4.60
2023-01-30T10:08:59.993Z,4.61
2023-01-30T10:10:00.044Z,4.64
2023-01-30T10:11:09.513Z,4.68
2023-01-30T10:12:00.037Z,4.74
2023-01-30T10:13:00.010Z,4.76
2023-01-30T10:13:59.965Z,4.86
2023-01-30T10:14:59.960Z,4.90
2023-01-30T10:16:00.020Z,5.00
2023-01-30T10:16:59.948Z,5.16
2023-01-30T10:17:59.963Z,5.25
2023-01-30T10:18:59.986Z,5.22
2023-01-30T10:19:59.942Z,5.13
2023-01-30T10:20:59.911Z,5.12
2023-01-30T10:21:59.857Z,5.10
2023-01-30T10:22:59.829Z,5.10
2023-01-30T10:23:59.787Z,5.13
2023-01-30T10:24:59.874Z,5.23
2023-01-30T10:25:59.885Z,5.22
2023-01-30T10:26:59.815Z,5.25
2023-01-30T10:27:59.766Z,5.23
2023-01-30T10:29:07.254Z,5.19
2023-01-30T10:29:59.766Z,5.16
2023-01-30T10:31:00.031Z,5.20
2023-01-30T10:31:59.735Z,5.20
2023-01-30T10:32:59.750Z,5.28
2023-01-30T10:33:59.680Z,5.37
2023-01-30T10:34:59.681Z,5.41
2023-01-30T10:35:59.691Z,5.46
2023-01-30T10:36:59.632Z,5.43
2023-01-30T10:37:59.635Z,5.49
2023-01-30T10:38:59.649Z,5.51
2023-01-30T10:39:59.644Z,5.54
2023-01-30T10:40:59.803Z,5.59
2023-01-30T10:41:59.576Z,5.61
2023-01-30T10:42:59.613Z,5.67
2023-01-30T10:43:59.607Z,5.64
2023-01-30T10:44:59.534Z,5.62
2023-01-30T10:45:59.575Z,5.58
2023-01-30T10:46:59.605Z,5.52
2023-01-30T10:47:59.513Z,5.49
2023-01-30T10:48:59.563Z,5.43
2023-01-30T10:49:59.511Z,5.37
2023-01-30T10:50:59.465Z,5.33
2023-01-30T10:51:59.452Z,5.29
2023-01-30T10:52:59.615Z,5.28
2023-01-30T10:53:59.402Z,5.23
2023-01-30T10:54:59.435Z,5.19
2023-01-30T10:55:59.442Z,5.16
2023-01-30T10:56:59.385Z,5.12
2023-01-30T10:57:59.379Z,5.08
2023-01-30T10:58:59.338Z,5.01
2023-01-30T10:59:59.386Z,5.00
2023-01-30T11:00:59.336Z,5.00
2023-01-30T11:01:59.413Z,5.01
2023-01-30T11:02:59.408Z,4.98
2023-01-30T11:03:59.325Z,5.00
2023-01-30T11:04:59.286Z,4.98
2023-01-30T11:05:59.270Z,5.02
2023-01-30T11:06:59.260Z,5.08
2023-01-30T11:07:59.245Z,5.05
2023-01-30T11:08:59.332Z,5.05
2023-01-30T11:09:59.226Z,5.02
2023-01-30T11:10:59.246Z,5.05
2023-01-30T11:11:59.216Z,5.04
2023-01-30T11:12:59.202Z,5.02
2023-01-30T11:13:59.251Z,4.98
2023-01-30T11:14:59.319Z,4.94
2023-01-30T11:15:59.208Z,4.92
2023-01-30T11:16:59.157Z,4.87
2023-01-30T11:18:27.266Z,4.89
2023-01-30T11:19:59.075Z,4.87
2023-01-30T11:20:59.105Z,4.94
2023-01-30T11:21:59.057Z,4.95
2023-01-30T11:22:59.036Z,4.95
2023-01-30T11:23:59.116Z,5.00
2023-01-30T11:24:59.042Z,5.05
2023-01-30T11:26:10.404Z,5.05
2023-01-30T11:26:59.009Z,5.13
2023-01-30T11:27:59.010Z,5.22
2023-01-30T11:28:58.989Z,5.33
2023-01-30T11:29:59.011Z,5.37
2023-01-30T11:30:58.991Z,5.40
2023-01-30T11:31:59.027Z,5.47
2023-01-30T11:32:58.982Z,5.55
2023-01-30T11:33:58.912Z,5.61
2023-01-30T11:34:58.956Z,5.64
2023-01-30T11:35:58.889Z,5.69
2023-01-30T11:36:58.976Z,5.74
2023-01-30T11:37:58.877Z,5.83
2023-01-30T11:38:58.986Z,5.91
2023-01-30T11:39:58.958Z,5.94
2023-01-30T11:40:58.846Z,6.02
2023-01-30T11:41:58.807Z,6.10
2023-01-30T11:42:58.794Z,6.02
2023-01-30T11:43:58.796Z,5.97
2023-01-30T11:45:15.709Z,5.94
2023-01-30T11:45:58.927Z,5.98
2023-01-30T11:46:58.770Z,5.98
2023-01-30T11:48:04.517Z,5.94
2023-01-30T11:49:06.169Z,5.92
2023-01-30T11:50:16.915Z,5.92
2023-01-30T11:50:58.740Z,5.90
2023-01-30T11:51:58.829Z,5.87
2023-01-30T11:52:58.637Z,5.83
2023-01-30T11:53:58.833Z,5.79
2023-01-30T11:54:58.666Z,5.77
2023-01-30T11:56:05.280Z,5.77
2023-01-30T11:56:58.625Z,5.83
2023-01-30T11:57:58.628Z,5.81
2023-01-30T11:58:58.652Z,5.80
2023-01-30T11:59:58.544Z,5.84
2023-01-30T12:00:58.632Z,5.90
2023-01-30T12:01:58.553Z,5.92
2023-01-30T12:02:58.566Z,5.97
2023-01-30T12:03:58.512Z,5.91
2023-01-30T12:04:58.533Z,5.88
2023-01-30T12:05:58.493Z,5.87
2023-01-30T12:06:58.541Z,5.88
2023-01-30T12:07:58.511Z,5.84
2023-01-30T12:08:58.432Z,5.80
2023-01-30T12:09:58.512Z,5.79
2023-01-30T12:10:58.424Z,5.77
2023-01-30T12:11:58.485Z,5.76
2023-01-30T12:12:58.408Z,5.81
2023-01-30T12:13:58.397Z,5.79
2023-01-30T12:14:58.377Z,5.70
2023-01-30T12:15:58.346Z,5.64
2023-01-30T12:16:58.430Z,5.58
2023-01-30T12:17:58.286Z,5.55
2023-01-30T12:18:58.300Z,5.49
2023-01-30T12:19:58.310Z,5.51
2023-01-30T12:20:58.277Z,5.46
2023-01-30T12:21:58.377Z,5.44
2023-01-30T12:22:58.321Z,5.44
2023-01-30T12:23:58.230Z,5.44
2023-01-30T12:24:58.349Z,5.41
2023-01-30T12:25:58.205Z,5.38
2023-01-30T12:26:58.182Z,5.40
2023-01-30T12:28:02.979Z,5.41
2023-01-30T12:28:58.207Z,5.41
2023-01-30T12:29:58.172Z,5.41
2023-01-30T12:30:58.190Z,5.43
2023-01-30T12:31:58.144Z,5.41
2023-01-30T12:32:58.114Z,5.41
2023-01-30T12:33:58.213Z,5.43
2023-01-30T12:34:58.125Z,5.43
2023-01-30T12:35:58.095Z,5.41
2023-01-30T12:36:58.367Z,5.41
2023-01-30T12:37:58.090Z,5.43
2023-01-30T12:38:58.113Z,5.46
2023-01-30T12:39:58.071Z,5.47
2023-01-30T12:40:58.024Z,5.43
2023-01-30T12:41:58.052Z,5.43
2023-01-30T12:42:58.045Z,5.38
2023-01-30T12:43:58.005Z,5.36
2023-01-30T12:44:58.042Z,5.34
2023-01-30T12:45:57.958Z,5.33
2023-01-30T12:46:57.995Z,5.33
2023-01-30T12:47:57.972Z,5.34
2023-01-30T12:49:12.710Z,5.34
2023-01-30T12:49:57.907Z,5.33
2023-01-30T12:50:57.955Z,5.29
2023-01-30T12:51:57.855Z,5.25
2023-01-30T12:52:58.017Z,5.25
2023-01-30T12:53:57.883Z,5.22
2023-01-30T12:54:57.866Z,5.20
2023-01-30T12:55:57.932Z,5.13
2023-01-30T12:56:58.022Z,5.08
2023-01-30T12:57:57.884Z,5.05
2023-01-30T12:58:57.820Z,5.04
2023-01-30T12:59:57.858Z,5.05
2023-01-30T13:00:58.014Z,5.04
2023-01-30T13:01:57.936Z,5.02
2023-01-30T13:02:58.142Z,5.01
2023-01-30T13:03:57.821Z,5.00
2023-01-30T13:05:03.889Z,4.95
2023-01-30T13:05:57.693Z,4.89
2023-01-30T13:06:57.717Z,4.84